createdAt,value
2019-05-10T00:01:57.976Z,7.60
2019-05-10T00:04:46.420Z,7.50
2019-05-10T00:07:34.929Z,7.50
2019-05-10T00:10:05.797Z,7.50
2019-05-10T00:12:43.442Z,7.50
2019-05-10T00:15:15.246Z,7.60
2019-05-10T00:17:46.764Z,7.60
2019-05-10T00:20:17.008Z,7.60
2019-05-10T00:22:47.373Z,7.70
2019-05-10T00:25:17.794Z,7.70
2019-05-10T00:27:48.109Z,7.80
2019-05-10T00:30:18.729Z,7.80
2019-05-10T00:32:48.953Z,7.80
2019-05-10T00:35:19.308Z,7.80
2019-05-10T00:37:49.785Z,7.80
2019-05-10T00:40:19.969Z,7.90
2019-05-10T00:42:50.534Z,7.90
2019-05-10T00:45:20.813Z,7.90
2019-05-10T00:47:51.137Z,7.90
2019-05-10T00:50:21.612Z,7.90
2019-05-10T00:52:51.917Z,7.90
2019-05-10T00:55:22.464Z,8.00
2019-05-10T00:57:52.961Z,8.00
2019-05-10T01:00:23.579Z,8.00
2019-05-10T01:02:54.073Z,8.00
2019-05-10T01:05:24.346Z,7.90
2019-05-10T01:07:54.705Z,8.00
2019-05-10T01:10:25.244Z,7.90
2019-05-10T01:12:55.728Z,7.80
2019-05-10T01:15:26.009Z,7.80
2019-05-10T01:17:56.425Z,7.80
2019-05-10T01:20:26.860Z,7.80
2019-05-10T01:22:57.241Z,7.80
2019-05-10T01:25:35.007Z,7.70
2019-05-10T01:27:59.569Z,7.80
2019-05-10T01:30:30.033Z,7.80
2019-05-10T01:33:00.449Z,7.80
2019-05-10T01:35:30.932Z,7.80
2019-05-10T01:38:01.573Z,7.80
2019-05-10T01:40:31.788Z,7.80
2019-05-10T01:43:02.055Z,7.80
2019-05-10T01:45:32.544Z,7.80
2019-05-10T01:48:03.021Z,7.80
2019-05-10T01:50:33.328Z,7.80
2019-05-10T01:53:03.769Z,7.80
2019-05-10T01:55:50.464Z,7.80
2019-05-10T01:58:06.369Z,7.80
2019-05-10T02:00:36.586Z,7.80
2019-05-10T02:03:06.937Z,7.80
2019-05-10T02:05:37.237Z,7.80
2019-05-10T02:08:07.525Z,7.80
2019-05-10T02:10:37.906Z,7.80
2019-05-10T02:13:08.105Z,7.80
2019-05-10T02:15:38.398Z,7.80
2019-05-10T02:18:08.885Z,7.80
2019-05-10T02:20:39.085Z,7.80
2019-05-10T02:23:09.444Z,7.90
2019-05-10T02:25:39.815Z,7.80
2019-05-10T02:28:10.508Z,7.90
2019-05-10T02:30:40.797Z,7.90
2019-05-10T02:33:11.311Z,7.80
2019-05-10T02:35:41.805Z,7.90
2019-05-10T02:38:12.354Z,7.90
2019-05-10T02:40:42.809Z,7.90
2019-05-10T02:43:13.158Z,7.90
2019-05-10T02:45:43.523Z,7.90
2019-05-10T02:48:13.777Z,8.00
2019-05-10T02:50:44.143Z,8.00
2019-05-10T02:53:14.920Z,8.00
2019-05-10T02:55:45.722Z,7.90
2019-05-10T02:58:16.422Z,7.90
2019-05-10T03:00:48.771Z,7.90
2019-05-10T03:03:21.453Z,7.90
2019-05-10T03:05:53.752Z,7.90
2019-05-10T03:08:24.133Z,8.00
2019-05-10T03:10:58.553Z,7.90
2019-05-10T03:13:30.771Z,7.90
2019-05-10T03:16:02.969Z,7.90
2019-05-10T03:18:33.815Z,8.00
2019-05-10T03:21:06.436Z,8.00
2019-05-10T03:23:36.737Z,8.00
2019-05-10T03:26:07.010Z,8.00
2019-05-10T03:28:37.303Z,8.00
2019-05-10T03:31:08.119Z,8.00
2019-05-10T03:33:38.463Z,8.00
2019-05-10T03:36:09.236Z,8.10
2019-05-10T03:38:39.609Z,8.10
2019-05-10T03:41:09.945Z,8.20
2019-05-10T03:43:40.246Z,8.20
2019-05-10T03:46:10.534Z,8.20
2019-05-10T03:48:40.801Z,8.20
2019-05-10T03:51:11.102Z,8.20
2019-05-10T03:53:41.569Z,8.20
2019-05-10T03:56:11.841Z,8.30
2019-05-10T03:58:42.227Z,8.20
2019-05-10T04:01:12.954Z,8.30
2019-05-10T04:03:43.230Z,8.30
2019-05-10T04:06:13.629Z,8.30
2019-05-10T04:08:43.988Z,8.30
2019-05-10T04:11:14.442Z,8.30
2019-05-10T04:13:44.953Z,8.30
2019-05-10T04:16:15.340Z,8.30
2019-05-10T04:18:45.671Z,8.30
2019-05-10T04:21:16.007Z,8.30
2019-05-10T04:23:46.406Z,8.30
2019-05-10T04:26:16.881Z,8.30
2019-05-10T04:28:47.049Z,8.40
2019-05-10T04:31:18.353Z,8.40
2019-05-10T04:33:48.670Z,8.60
2019-05-10T04:36:19.193Z,8.60
2019-05-10T04:38:49.538Z,8.60
2019-05-10T04:41:19.767Z,8.70
2019-05-10T04:43:50.224Z,8.70
2019-05-10T04:46:20.521Z,8.70
2019-05-10T04:48:50.863Z,8.80
2019-05-10T04:51:21.361Z,8.80
2019-05-10T04:53:51.497Z,9.00
2019-05-10T04:56:21.802Z,9.00
2019-05-10T04:58:52.115Z,9.10
2019-05-10T05:01:22.496Z,9.20
2019-05-10T05:03:53.141Z,9.30
2019-05-10T05:06:23.637Z,9.40
2019-05-10T05:08:54.122Z,9.50
2019-05-10T05:11:24.521Z,9.50
2019-05-10T05:13:54.941Z,9.60
2019-05-10T05:16:25.227Z,9.70
2019-05-10T05:18:55.640Z,9.80
2019-05-10T05:21:26.318Z,9.80
2019-05-10T05:23:56.617Z,9.90
2019-05-10T05:26:27.170Z,9.90
2019-05-10T05:28:57.378Z,10.00
2019-05-10T05:31:27.861Z,10.00
2019-05-10T05:33:59.075Z,10.10
2019-05-10T05:36:30.497Z,10.20
2019-05-10T05:39:00.997Z,10.20
2019-05-10T05:41:31.960Z,10.30
2019-05-10T05:44:02.477Z,10.30
2019-05-10T05:46:32.773Z,10.40
2019-05-10T05:49:03.261Z,10.40
2019-05-10T05:51:33.955Z,10.60
2019-05-10T05:54:04.627Z,10.60
2019-05-10T05:56:34.925Z,10.70
2019-05-10T05:59:08.648Z,10.80
2019-05-10T06:01:37.440Z,11.00
2019-05-10T06:04:12.502Z,11.10
2019-05-10T06:06:40.034Z,11.30
2019-05-10T06:09:10.577Z,11.40
2019-05-10T06:11:41.049Z,11.50
2019-05-10T06:14:13.015Z,11.50
2019-05-10T06:16:45.043Z,11.50
2019-05-10T06:19:19.869Z,11.60
2019-05-10T06:21:47.615Z,11.60
2019-05-10T06:24:17.830Z,11.70
2019-05-10T06:26:48.229Z,11.70
2019-05-10T06:29:19.911Z,11.80
2019-05-10T06:31:50.254Z,11.90
2019-05-10T06:34:20.953Z,12.10
2019-05-10T06:36:51.581Z,12.30
2019-05-10T06:39:21.837Z,12.60
2019-05-10T06:41:55.949Z,12.80
2019-05-10T06:44:25.007Z,13.00
2019-05-10T06:46:56.438Z,13.10
2019-05-10T06:49:26.737Z,13.20
2019-05-10T06:51:57.109Z,13.30
2019-05-10T06:54:27.453Z,13.30
2019-05-10T06:56:57.664Z,13.60
2019-05-10T06:59:28.157Z,13.90
2019-05-10T07:01:58.616Z,14.10
2019-05-10T07:04:29.183Z,14.30
2019-05-10T07:06:59.466Z,14.40
2019-05-10T07:09:29.774Z,14.60
2019-05-10T07:12:00.133Z,14.60
2019-05-10T07:14:30.525Z,14.70
2019-05-10T07:17:02.507Z,14.60
2019-05-10T07:19:34.816Z,14.70
2019-05-10T07:22:05.153Z,14.70
2019-05-10T07:24:35.304Z,14.10
2019-05-10T07:27:06.118Z,13.90
2019-05-10T07:29:42.982Z,13.70
2019-05-10T07:32:08.522Z,13.60
2019-05-10T07:34:38.934Z,13.70
2019-05-10T07:37:09.490Z,13.70
2019-05-10T07:39:39.840Z,13.70
2019-05-10T07:42:10.142Z,13.60
2019-05-10T07:44:41.477Z,13.80
2019-05-10T07:47:12.569Z,14.10
2019-05-10T07:49:42.889Z,14.40
2019-05-10T07:52:13.446Z,14.70
2019-05-10T07:54:47.513Z,14.90
2019-05-10T07:57:18.733Z,14.90
2019-05-10T07:59:50.602Z,14.60
2019-05-10T08:02:19.691Z,14.40
2019-05-10T08:04:53.055Z,14.20
2019-05-10T08:07:22.072Z,14.30
2019-05-10T08:09:52.453Z,14.60
2019-05-10T08:12:22.861Z,14.80
2019-05-10T08:14:53.665Z,14.90
2019-05-10T08:17:24.097Z,14.60
2019-05-10T08:19:54.509Z,14.20
2019-05-10T08:22:24.937Z,14.00
2019-05-10T08:24:56.413Z,14.10
2019-05-10T08:27:26.841Z,14.20
2019-05-10T08:30:17.980Z,14.30
2019-05-10T08:32:32.237Z,14.20
2019-05-10T08:35:05.127Z,14.50
2019-05-10T08:37:37.566Z,14.80
2019-05-10T08:40:05.961Z,15.40
2019-05-10T08:42:45.359Z,15.90
2019-05-10T08:45:09.182Z,16.00
2019-05-10T08:47:39.529Z,16.40
2019-05-10T08:50:22.392Z,16.50
2019-05-10T08:52:42.316Z,16.70
2019-05-10T08:55:13.021Z,16.40
2019-05-10T08:57:47.916Z,16.00
2019-05-10T09:00:15.521Z,16.00
2019-05-10T09:02:45.893Z,15.70
2019-05-10T09:05:21.052Z,15.90
2019-05-10T09:07:48.466Z,16.00
2019-05-10T09:10:19.361Z,15.90
2019-05-10T09:12:54.253Z,16.00
2019-05-10T09:15:22.399Z,16.10
2019-05-10T09:17:52.873Z,16.00
2019-05-10T09:20:26.392Z,16.00
2019-05-10T09:22:55.331Z,16.20
2019-05-10T09:25:29.543Z,16.30
2019-05-10T09:28:02.457Z,16.40
2019-05-10T09:30:35.503Z,16.50
2019-05-10T09:33:08.613Z,16.60
2019-05-10T09:35:38.808Z,16.70
2019-05-10T09:38:12.253Z,16.80
2019-05-10T09:40:50.775Z,16.30
2019-05-10T09:43:14.959Z,16.50
2019-05-10T09:45:45.693Z,16.40
2019-05-10T09:48:16.799Z,16.50
2019-05-10T09:50:47.446Z,16.70
2019-05-10T09:53:23.647Z,16.90
2019-05-10T09:55:55.325Z,16.80
2019-05-10T09:58:22.584Z,16.90
2019-05-10T10:00:53.074Z,16.80
2019-05-10T10:03:23.769Z,16.80
2019-05-10T10:05:55.267Z,16.60
2019-05-10T10:08:28.137Z,16.30
2019-05-10T10:11:01.197Z,16.00
2019-05-10T10:13:39.484Z,16.00
2019-05-10T10:16:04.141Z,16.20
2019-05-10T10:18:34.077Z,16.10
2019-05-10T10:21:04.801Z,15.50
2019-05-10T10:23:37.755Z,15.10
2019-05-10T10:26:07.379Z,14.90
2019-05-10T10:28:39.693Z,15.00
2019-05-10T10:31:09.996Z,14.90
2019-05-10T10:33:42.860Z,14.80
2019-05-10T10:36:12.765Z,15.10
2019-05-10T10:38:45.567Z,15.50
2019-05-10T10:41:17.062Z,15.60
2019-05-10T10:43:48.438Z,15.80
2019-05-10T10:46:19.924Z,15.80
2019-05-10T10:48:51.442Z,15.90
2019-05-10T10:51:26.687Z,15.80
2019-05-10T10:53:54.742Z,15.80
2019-05-10T10:56:27.658Z,15.50
2019-05-10T10:58:58.436Z,15.70
2019-05-10T11:01:45.686Z,15.40
2019-05-10T11:04:03.561Z,15.40
2019-05-10T11:06:33.807Z,15.20
2019-05-10T11:09:07.333Z,14.50
2019-05-10T11:11:43.866Z,14.90
2019-05-10T11:14:11.049Z,15.10
2019-05-10T11:16:46.340Z,15.20
2019-05-10T11:19:15.535Z,15.60
2019-05-10T11:21:45.722Z,15.90
2019-05-10T11:24:18.575Z,16.40
2019-05-10T11:26:48.025Z,16.70
2019-05-10T11:29:25.581Z,16.80
2019-05-10T11:32:11.182Z,16.70
2019-05-10T11:34:22.409Z,16.70
2019-05-10T11:36:52.626Z,16.40
2019-05-10T11:39:26.362Z,16.30
2019-05-10T11:42:02.136Z,15.70
2019-05-10T11:44:27.020Z,16.00
2019-05-10T11:46:57.395Z,15.60
2019-05-10T11:49:27.790Z,15.80
2019-05-10T11:51:58.864Z,15.50
2019-05-10T11:54:31.867Z,15.40
2019-05-10T11:57:06.686Z,15.10
2019-05-10T11:59:38.585Z,14.90
2019-05-10T12:02:10.257Z,15.30
2019-05-10T12:04:40.385Z,15.20
2019-05-10T12:07:12.976Z,15.00
2019-05-10T12:09:42.780Z,15.00
2019-05-10T12:12:13.117Z,15.10
2019-05-10T12:14:46.540Z,15.00
2019-05-10T12:17:15.586Z,15.00
2019-05-10T12:22:21.486Z,14.80
2019-05-10T12:25:06.239Z,15.00
2019-05-10T12:26:05.396Z,14.90
2019-05-10T12:27:28.545Z,15.10
2019-05-10T12:29:59.694Z,15.40
2019-05-10T12:32:27.077Z,14.70
2019-05-10T12:34:57.956Z,14.90
2019-05-10T12:37:30.706Z,15.30
2019-05-10T12:40:09.002Z,15.60
2019-05-10T12:42:32.446Z,15.80
2019-05-10T12:45:03.701Z,15.90
2019-05-10T12:47:34.173Z,16.00
2019-05-10T12:50:08.479Z,15.90
2019-05-10T12:52:38.760Z,16.00
2019-05-10T12:55:09.285Z,16.00
2019-05-10T12:57:42.892Z,16.10
2019-05-10T13:00:13.076Z,16.00
2019-05-10T13:02:44.833Z,15.90
2019-05-10T13:05:16.292Z,15.90
2019-05-10T13:07:46.615Z,16.00
2019-05-10T13:10:17.202Z,15.80
2019-05-10T13:12:47.663Z,15.70
2019-05-10T13:15:18.305Z,15.80
2019-05-10T13:17:50.924Z,15.80
2019-05-10T13:20:20.708Z,15.80
2019-05-10T13:22:50.990Z,15.70
2019-05-10T13:25:21.530Z,15.70
2019-05-10T13:27:51.805Z,15.70
2019-05-10T13:30:27.076Z,15.70
2019-05-10T13:32:58.768Z,15.70
2019-05-10T13:35:26.016Z,15.60
2019-05-10T13:37:56.828Z,15.60
2019-05-10T13:40:28.307Z,15.50
2019-05-10T13:42:58.589Z,15.40
2019-05-10T13:45:31.648Z,15.30
2019-05-10T13:48:00.880Z,15.30
2019-05-10T13:50:31.108Z,15.20
2019-05-10T13:53:01.513Z,15.10
2019-05-10T13:55:32.333Z,14.70
2019-05-10T13:58:02.814Z,14.30
2019-05-10T14:00:35.650Z,14.10
2019-05-10T14:03:11.505Z,14.00
2019-05-10T14:05:40.006Z,13.90
2019-05-10T14:08:09.546Z,13.90
2019-05-10T14:10:40.048Z,13.80
2019-05-10T14:13:10.717Z,13.70
2019-05-10T14:15:41.098Z,13.60
2019-05-10T14:18:11.853Z,13.40
2019-05-10T14:20:42.248Z,13.30
2019-05-10T14:23:12.739Z,13.10
2019-05-10T14:25:43.249Z,12.80
2019-05-10T14:28:15.872Z,12.50
2019-05-10T14:30:46.945Z,12.30
2019-05-10T14:33:17.885Z,12.40
2019-05-10T14:35:48.398Z,12.30
2019-05-10T14:38:20.930Z,12.10
2019-05-10T14:40:51.061Z,11.90
2019-05-10T14:43:21.485Z,11.60
2019-05-10T14:45:51.797Z,11.60
2019-05-10T14:48:27.814Z,11.60
2019-05-10T14:50:54.006Z,11.40
2019-05-10T14:53:25.582Z,11.30
2019-05-10T14:55:56.631Z,11.30
2019-05-10T14:58:26.914Z,11.30
2019-05-10T15:00:57.283Z,11.30
2019-05-10T15:03:27.752Z,11.20
2019-05-10T15:06:01.453Z,11.20
2019-05-10T15:08:30.158Z,11.10
2019-05-10T15:11:00.656Z,11.10
2019-05-10T15:13:34.775Z,11.10
2019-05-10T15:16:06.925Z,11.10
2019-05-10T15:18:35.301Z,11.10
2019-05-10T15:21:05.793Z,11.10
2019-05-10T15:23:35.937Z,11.10
2019-05-10T15:26:11.675Z,11.10
2019-05-10T15:28:40.435Z,11.10
2019-05-10T15:31:10.195Z,11.10
2019-05-10T15:33:40.478Z,11.20
2019-05-10T15:36:10.874Z,11.10
2019-05-10T15:38:49.957Z,11.20
2019-05-10T15:41:17.093Z,11.20
2019-05-10T15:43:48.943Z,11.20
2019-05-10T15:46:17.641Z,11.30
2019-05-10T15:48:48.081Z,11.30
2019-05-10T15:51:18.604Z,11.30
2019-05-10T15:53:48.865Z,11.30
2019-05-10T15:56:19.259Z,11.30
2019-05-10T15:58:49.628Z,11.30
2019-05-10T16:01:26.125Z,11.30
2019-05-10T16:03:51.761Z,11.30
2019-05-10T16:06:22.121Z,11.40
2019-05-10T16:08:52.613Z,11.40
2019-05-10T16:11:22.994Z,11.50
2019-05-10T16:13:54.710Z,11.50
2019-05-10T16:16:30.364Z,11.50
2019-05-10T16:18:57.371Z,11.40
2019-05-10T16:21:27.748Z,11.30
2019-05-10T16:23:58.138Z,11.30
2019-05-10T16:26:28.524Z,11.40
2019-05-10T16:29:02.269Z,11.40
2019-05-10T16:31:31.004Z,11.40
2019-05-10T16:34:01.294Z,11.40
2019-05-10T16:36:31.497Z,11.40
2019-05-10T16:39:02.112Z,11.40
2019-05-10T16:41:32.535Z,11.40
2019-05-10T16:44:02.748Z,11.40
2019-05-10T16:46:33.301Z,11.50
2019-05-10T16:49:03.937Z,11.40
2019-05-10T16:51:34.489Z,11.40
2019-05-10T16:54:04.852Z,11.40
2019-05-10T16:56:35.132Z,11.40
2019-05-10T16:59:05.344Z,11.50
2019-05-10T17:01:35.780Z,11.50
2019-05-10T17:04:06.233Z,11.40
2019-05-10T17:06:40.402Z,11.40
2019-05-10T17:09:17.597Z,11.30
2019-05-10T17:11:41.689Z,11.40
2019-05-10T17:14:18.010Z,11.50
2019-05-10T17:16:50.241Z,11.40
2019-05-10T17:19:17.244Z,11.50
2019-05-10T17:21:47.737Z,11.40
2019-05-10T17:24:18.664Z,11.30
2019-05-10T17:26:49.962Z,11.30
2019-05-10T17:29:20.261Z,11.30
2019-05-10T17:31:50.721Z,11.30
2019-05-10T17:34:29.079Z,11.30
2019-05-10T17:36:57.943Z,11.40
2019-05-10T17:39:26.243Z,11.30
2019-05-10T17:42:02.569Z,11.30
2019-05-10T17:44:29.296Z,11.30
2019-05-10T17:46:59.578Z,11.20
2019-05-10T17:49:29.985Z,11.10
2019-05-10T17:52:00.383Z,11.00
2019-05-10T17:54:33.838Z,11.00
2019-05-10T17:57:02.834Z,10.90
2019-05-10T17:59:33.314Z,10.90
2019-05-10T18:02:03.641Z,10.90
2019-05-10T18:04:33.923Z,10.90
2019-05-10T18:07:04.348Z,10.80
2019-05-10T18:09:34.740Z,10.80
2019-05-10T18:12:05.097Z,10.70
2019-05-10T18:14:35.624Z,10.70
2019-05-10T18:17:07.297Z,10.70
2019-05-10T18:19:37.537Z,10.60
2019-05-10T18:22:08.105Z,10.60
2019-05-10T18:24:42.248Z,10.60
2019-05-10T18:27:10.301Z,10.60
2019-05-10T18:29:40.757Z,10.50
2019-05-10T18:32:11.274Z,10.50
2019-05-10T18:34:41.725Z,10.50
2019-05-10T18:37:15.887Z,10.40
2019-05-10T18:39:50.992Z,10.40
2019-05-10T18:42:18.756Z,10.40
2019-05-10T18:44:51.883Z,10.40
2019-05-10T18:47:20.225Z,10.40
2019-05-10T18:49:50.628Z,10.40
2019-05-10T18:52:21.180Z,10.40
2019-05-10T18:54:51.566Z,10.40
2019-05-10T18:57:21.958Z,10.40
2019-05-10T18:59:52.237Z,10.50
2019-05-10T19:02:22.904Z,10.40
2019-05-10T19:04:54.271Z,10.40
2019-05-10T19:07:24.725Z,10.30
2019-05-10T19:09:55.033Z,10.30
2019-05-10T19:12:25.967Z,10.30
2019-05-10T19:14:56.366Z,10.30
2019-05-10T19:17:26.830Z,10.20
2019-05-10T19:19:57.325Z,10.20
2019-05-10T19:22:27.553Z,10.10
2019-05-10T19:25:04.322Z,10.00
2019-05-10T19:27:29.953Z,9.90
2019-05-10T19:30:00.277Z,9.90
2019-05-10T19:32:30.661Z,9.90
2019-05-10T19:35:01.046Z,9.90
2019-05-10T19:37:34.341Z,9.80
2019-05-10T19:40:04.214Z,9.80
2019-05-10T19:42:37.055Z,9.80
2019-05-10T19:45:07.417Z,9.70
2019-05-10T19:47:37.728Z,9.60
2019-05-10T19:50:08.451Z,9.60
2019-05-10T19:52:38.849Z,9.50
2019-05-10T19:55:12.953Z,9.50
2019-05-10T19:57:42.160Z,9.40
2019-05-10T20:00:12.960Z,9.40
2019-05-10T20:02:43.182Z,9.40
2019-05-10T20:05:13.838Z,9.40
2019-05-10T20:07:46.388Z,9.40
2019-05-10T20:10:16.626Z,9.40
2019-05-10T20:12:46.910Z,9.40
2019-05-10T20:15:17.276Z,9.40
2019-05-10T20:17:47.501Z,9.40
2019-05-10T20:20:18.029Z,9.40
2019-05-10T20:22:48.378Z,9.50
2019-05-10T20:25:18.705Z,9.50
2019-05-10T20:27:49.004Z,9.40
2019-05-10T20:30:20.803Z,9.30
2019-05-10T20:32:51.298Z,9.30
2019-05-10T20:35:21.677Z,9.30
2019-05-10T20:38:01.495Z,9.40
2019-05-10T20:40:24.086Z,9.20
2019-05-10T20:42:54.493Z,9.10
2019-05-10T20:45:24.981Z,9.20
2019-05-10T20:47:55.409Z,9.20
2019-05-10T20:50:25.863Z,9.10
2019-05-10T20:52:56.360Z,9.10
2019-05-10T20:55:26.686Z,9.10
2019-05-10T20:57:56.915Z,9.10
2019-05-10T21:00:27.389Z,9.10
2019-05-10T21:02:57.801Z,9.10
2019-05-10T21:05:28.181Z,9.10
2019-05-10T21:07:58.576Z,9.10
2019-05-10T21:10:28.866Z,9.10
2019-05-10T21:12:59.253Z,9.20
2019-05-10T21:15:29.826Z,9.20
2019-05-10T21:18:00.208Z,9.10
2019-05-10T21:20:30.606Z,9.10
2019-05-10T21:23:00.996Z,9.10
2019-05-10T21:25:31.292Z,9.20
2019-05-10T21:28:01.675Z,9.20
2019-05-10T21:30:31.968Z,9.20
2019-05-10T21:33:02.307Z,9.20
2019-05-10T21:35:32.585Z,9.20
2019-05-10T21:38:02.885Z,9.20
2019-05-10T21:40:33.100Z,9.10
2019-05-10T21:43:03.740Z,9.10
2019-05-10T21:45:34.118Z,9.10
2019-05-10T21:48:04.554Z,9.10
2019-05-10T21:50:34.919Z,9.10
2019-05-10T21:53:05.386Z,9.10
2019-05-10T21:55:35.893Z,9.00
2019-05-10T21:58:06.568Z,9.00
2019-05-10T22:00:38.825Z,9.00
2019-05-10T22:03:09.210Z,9.00
2019-05-10T22:05:39.609Z,9.00
2019-05-10T22:08:10.062Z,9.00
2019-05-10T22:10:40.414Z,8.90
2019-05-10T22:13:10.948Z,8.90
2019-05-10T22:15:41.496Z,8.90
2019-05-10T22:18:12.051Z,8.90
2019-05-10T22:20:42.373Z,8.90
2019-05-10T22:23:12.586Z,8.90
2019-05-10T22:25:42.980Z,8.80
2019-05-10T22:28:13.389Z,8.80
2019-05-10T22:30:44.395Z,8.80
2019-05-10T22:33:14.733Z,8.80
2019-05-10T22:35:45.025Z,8.70
2019-05-10T22:38:15.521Z,8.70
2019-05-10T22:40:45.898Z,8.70
2019-05-10T22:43:16.301Z,8.70
2019-05-10T22:45:46.512Z,8.70
2019-05-10T22:48:16.984Z,8.70
2019-05-10T22:50:47.273Z,8.70
2019-05-10T22:53:17.673Z,8.70
2019-05-10T22:55:47.958Z,8.70
2019-05-10T22:58:18.372Z,8.70
2019-05-10T23:00:48.641Z,8.70
2019-05-10T23:03:23.926Z,8.70
2019-05-10T23:05:51.686Z,8.70
2019-05-10T23:08:22.118Z,8.70
2019-05-10T23:10:52.467Z,8.60
2019-05-10T23:13:23.143Z,8.60
2019-05-10T23:15:53.425Z,8.60
2019-05-10T23:18:23.791Z,8.60
2019-05-10T23:20:54.073Z,8.50
2019-05-10T23:23:24.460Z,8.40
2019-05-10T23:25:55.052Z,8.30
2019-05-10T23:28:25.504Z,8.30
2019-05-10T23:30:55.831Z,8.30
2019-05-10T23:33:26.205Z,8.20
2019-05-10T23:35:56.752Z,8.20
2019-05-10T23:38:27.094Z,8.20
2019-05-10T23:40:57.340Z,8.20
2019-05-10T23:43:27.613Z,8.10
2019-05-10T23:45:58.110Z,8.10
2019-05-10T23:48:28.317Z,8.00
2019-05-10T23:50:58.804Z,8.00
2019-05-10T23:53:29.185Z,8.00
2019-05-10T23:55:59.397Z,7.90
2019-05-10T23:58:29.821Z,7.90
